createdAt,value
2019-05-03T00:00:06.651Z,68.84
2019-05-03T00:01:06.628Z,68.84
2019-05-03T00:02:06.601Z,68.84
2019-05-03T00:03:06.597Z,68.74
2019-05-03T00:04:07.259Z,68.84
2019-05-03T00:05:06.634Z,68.98
2019-05-03T00:06:06.569Z,69.05
2019-05-03T00:07:06.592Z,69.05
2019-05-03T00:08:06.538Z,68.95
2019-05-03T00:09:06.527Z,68.74
2019-05-03T00:10:06.546Z,68.74
2019-05-03T00:11:06.512Z,68.64
2019-05-03T00:12:06.506Z,68.64
2019-05-03T00:13:06.485Z,68.74
2019-05-03T00:14:06.484Z,68.84
2019-05-03T00:15:07.754Z,68.74
2019-05-03T00:16:06.454Z,69.05
2019-05-03T00:17:06.444Z,68.95
2019-05-03T00:18:06.434Z,69.35
2019-05-03T00:19:06.449Z,69.25
2019-05-03T00:20:06.440Z,69.46
2019-05-03T00:21:06.411Z,69.56
2019-05-03T00:22:06.390Z,69.46
2019-05-03T00:23:06.387Z,69.66
2019-05-03T00:24:06.370Z,70.17
2019-05-03T00:25:08.455Z,70.07
2019-05-03T00:26:06.356Z,70.31
2019-05-03T00:27:06.347Z,70.61
2019-05-03T00:28:06.338Z,70.61
2019-05-03T00:29:06.328Z,71.12
2019-05-03T00:30:06.306Z,71.73
2019-05-03T00:31:06.325Z,72.34
2019-05-03T00:32:06.286Z,73.27
2019-05-03T00:33:06.284Z,73.57
2019-05-03T00:34:06.271Z,73.98
2019-05-03T00:35:06.263Z,74.32
2019-05-03T00:36:06.301Z,74.05
2019-05-03T00:37:06.267Z,74.05
2019-05-03T00:38:07.060Z,74.69
2019-05-03T00:39:06.282Z,75.31
2019-05-03T00:40:06.201Z,75.62
2019-05-03T00:41:06.220Z,76.47
2019-05-03T00:42:06.961Z,76.37
2019-05-03T00:43:06.192Z,75.17
2019-05-03T00:44:06.167Z,75.07
2019-05-03T00:45:07.058Z,74.26
2019-05-03T00:46:06.167Z,73.85
2019-05-03T00:47:06.128Z,74.26
2019-05-03T00:48:06.126Z,73.88
2019-05-03T00:49:06.107Z,73.47
2019-05-03T00:50:06.103Z,73.78
2019-05-03T00:51:06.116Z,73.36
2019-05-03T00:52:06.074Z,73.68
2019-05-03T00:53:06.065Z,74.08
2019-05-03T00:54:06.054Z,74.49
2019-05-03T00:55:15.660Z,74.39
2019-05-03T00:56:07.064Z,74.19
2019-05-03T00:57:06.031Z,74.63
2019-05-03T00:58:06.047Z,75.04
2019-05-03T00:59:06.012Z,74.63
2019-05-03T01:00:05.991Z,74.94
2019-05-03T01:01:06.007Z,74.90
2019-05-03T01:02:06.015Z,75.21
2019-05-03T01:03:05.967Z,74.90
2019-05-03T01:04:05.970Z,75.52
2019-05-03T01:05:05.940Z,75.55
2019-05-03T01:06:05.957Z,75.42
2019-05-03T01:07:05.917Z,75.55
2019-05-03T01:08:05.906Z,75.52
2019-05-03T01:09:05.898Z,75.31
2019-05-03T01:10:05.886Z,75.24
2019-05-03T01:11:05.905Z,74.43
2019-05-03T01:12:05.864Z,74.84
2019-05-03T01:13:05.860Z,74.63
2019-05-03T01:14:07.464Z,74.43
2019-05-03T01:15:05.832Z,74.84
2019-05-03T01:16:05.854Z,74.94
2019-05-03T01:17:05.813Z,74.53
2019-05-03T01:18:05.802Z,74.02
2019-05-03T01:19:05.903Z,74.22
2019-05-03T01:20:05.781Z,73.91
2019-05-03T01:21:05.777Z,74.11
2019-05-03T01:22:05.787Z,74.56
2019-05-03T01:23:05.756Z,74.46
2019-05-03T01:24:05.749Z,74.46
2019-05-03T01:25:05.768Z,74.66
2019-05-03T01:26:06.465Z,74.56
2019-05-03T01:27:05.728Z,74.56
2019-05-03T01:28:06.558Z,74.66
2019-05-03T01:29:05.687Z,74.63
2019-05-03T01:30:05.677Z,74.87
2019-05-03T01:31:05.673Z,74.26
2019-05-03T01:32:05.693Z,73.85
2019-05-03T01:33:05.648Z,73.81
2019-05-03T01:34:05.637Z,74.05
2019-05-03T01:35:05.623Z,74.36
2019-05-03T01:36:05.613Z,74.05
2019-05-03T01:37:06.533Z,74.05
2019-05-03T01:38:05.591Z,74.26
2019-05-03T01:39:06.121Z,73.33
2019-05-03T01:40:05.569Z,73.95
2019-05-03T01:41:05.560Z,74.05
2019-05-03T01:42:05.580Z,74.15
2019-05-03T01:43:05.539Z,74.15
2019-05-03T01:44:06.190Z,74.36
2019-05-03T01:45:05.525Z,74.26
2019-05-03T01:46:05.507Z,73.64
2019-05-03T01:47:05.529Z,73.23
2019-05-03T01:48:05.487Z,73.64
2019-05-03T01:49:05.476Z,73.54
2019-05-03T01:50:05.508Z,73.64
2019-05-03T01:51:05.455Z,73.88
2019-05-03T01:52:05.472Z,74.05
2019-05-03T01:53:05.435Z,74.70
2019-05-03T01:54:05.426Z,74.90
2019-05-03T01:55:06.165Z,74.60
2019-05-03T01:56:05.402Z,74.70
2019-05-03T01:57:05.420Z,74.29
2019-05-03T01:58:05.381Z,74.29
2019-05-03T01:59:05.372Z,74.70
2019-05-03T02:00:06.661Z,74.60
2019-05-03T02:01:05.350Z,74.60
2019-05-03T02:02:07.337Z,74.60
2019-05-03T02:03:05.329Z,75.11
2019-05-03T02:04:05.317Z,74.90
2019-05-03T02:05:05.308Z,74.63
2019-05-03T02:06:05.299Z,75.24
2019-05-03T02:07:05.286Z,75.04
2019-05-03T02:08:05.296Z,75.24
2019-05-03T02:09:05.258Z,75.24
2019-05-03T02:10:05.257Z,74.94
2019-05-03T02:11:05.244Z,74.84
2019-05-03T02:12:05.235Z,74.84
2019-05-03T02:13:05.248Z,74.63
2019-05-03T02:14:05.212Z,74.53
2019-05-03T02:15:05.203Z,74.63
2019-05-03T02:16:05.191Z,73.91
2019-05-03T02:17:05.181Z,73.30
2019-05-03T02:18:05.200Z,73.30
2019-05-03T02:19:05.160Z,73.81
2019-05-03T02:20:05.149Z,74.22
2019-05-03T02:21:05.140Z,73.91
2019-05-03T02:22:05.128Z,73.50
2019-05-03T02:23:05.219Z,73.81
2019-05-03T02:24:05.106Z,73.91
2019-05-03T02:25:05.116Z,74.02
2019-05-03T02:26:05.087Z,74.02
2019-05-03T02:27:05.075Z,73.91
2019-05-03T02:28:05.087Z,74.02
2019-05-03T02:29:05.046Z,73.61
2019-05-03T02:30:05.878Z,73.50
2019-05-03T02:31:05.033Z,73.40
2019-05-03T02:32:05.023Z,73.50
2019-05-03T02:33:05.068Z,73.91
2019-05-03T02:34:05.003Z,73.50
2019-05-03T02:35:04.993Z,73.30
2019-05-03T02:36:04.983Z,72.89
2019-05-03T02:37:04.972Z,72.99
2019-05-03T02:38:04.995Z,73.10
2019-05-03T02:39:04.980Z,72.89
2019-05-03T02:40:04.941Z,72.89
2019-05-03T02:41:04.922Z,72.07
2019-05-03T02:42:10.302Z,72.17
2019-05-03T02:43:05.940Z,72.27
2019-05-03T02:44:06.302Z,72.38
2019-05-03T02:45:06.072Z,72.82
2019-05-03T02:46:06.635Z,73.13
2019-05-03T02:47:05.525Z,72.41
2019-05-03T02:48:06.091Z,72.82
2019-05-03T02:49:06.388Z,72.51
2019-05-03T02:50:05.841Z,72.61
2019-05-03T02:51:06.524Z,72.41
2019-05-03T02:52:06.610Z,72.41
2019-05-03T02:53:05.794Z,72.10
2019-05-03T02:54:15.674Z,71.90
2019-05-03T02:55:06.095Z,72.10
2019-05-03T02:56:15.219Z,72.41
2019-05-03T02:57:06.432Z,72.00
2019-05-03T02:58:05.702Z,72.00
2019-05-03T02:59:06.239Z,72.51
2019-05-03T03:00:05.158Z,72.20
2019-05-03T03:01:06.501Z,72.31
2019-05-03T03:02:06.380Z,72.41
2019-05-03T03:03:05.535Z,71.39
2019-05-03T03:04:05.414Z,71.28
2019-05-03T03:05:05.774Z,70.87
2019-05-03T03:06:06.713Z,70.46
2019-05-03T03:07:05.646Z,70.08
2019-05-03T03:08:06.008Z,70.29
2019-05-03T03:09:05.417Z,69.98
2019-05-03T03:10:05.277Z,70.08
2019-05-03T03:11:06.302Z,70.29
2019-05-03T03:12:06.185Z,70.80
2019-05-03T03:13:05.935Z,70.80
2019-05-03T03:14:05.760Z,70.50
2019-05-03T03:15:06.221Z,70.70
2019-05-03T03:16:06.808Z,70.18
2019-05-03T03:17:06.637Z,70.08
2019-05-03T03:18:06.302Z,70.18
2019-05-03T03:19:06.630Z,70.08
2019-05-03T03:20:05.487Z,70.08
2019-05-03T03:21:05.822Z,70.29
2019-05-03T03:22:05.840Z,70.50
2019-05-03T03:23:06.154Z,69.78
2019-05-03T03:24:06.414Z,69.67
2019-05-03T03:25:05.573Z,69.78
2019-05-03T03:26:06.224Z,70.18
2019-05-03T03:27:05.354Z,70.50
2019-05-03T03:28:05.361Z,70.50
2019-05-03T03:29:05.884Z,70.39
2019-05-03T03:30:07.699Z,70.29
2019-05-03T03:31:08.274Z,69.98
2019-05-03T03:32:09.077Z,69.88
2019-05-03T03:33:08.683Z,69.88
2019-05-03T03:34:08.347Z,69.98
2019-05-03T03:35:11.377Z,69.67
2019-05-03T03:36:31.313Z,69.67
2019-05-03T03:37:10.028Z,69.57
2019-05-03T03:38:05.785Z,69.88
2019-05-03T03:39:06.007Z,70.08
2019-05-03T03:40:06.035Z,70.08
2019-05-03T03:41:05.896Z,70.50
2019-05-03T03:42:05.310Z,70.18
2019-05-03T03:43:05.343Z,70.39
2019-05-03T03:44:05.866Z,70.29
2019-05-03T03:45:06.153Z,70.18
2019-05-03T03:46:05.412Z,70.22
2019-05-03T03:47:05.396Z,69.88
2019-05-03T03:48:05.189Z,69.78
2019-05-03T03:49:06.855Z,69.91
2019-05-03T03:50:05.886Z,69.78
2019-05-03T03:51:05.145Z,69.60
2019-05-03T03:52:06.176Z,69.78
2019-05-03T03:53:06.720Z,69.81
2019-05-03T03:54:06.042Z,70.12
2019-05-03T03:55:06.399Z,70.01
2019-05-03T03:56:05.613Z,69.91
2019-05-03T03:57:08.183Z,70.01
2019-05-03T03:58:06.439Z,70.32
2019-05-03T03:59:05.823Z,70.22
2019-05-03T04:00:05.447Z,69.91
2019-05-03T04:01:06.133Z,69.91
2019-05-03T04:02:05.939Z,70.22
2019-05-03T04:03:05.910Z,70.01
2019-05-03T04:04:05.523Z,70.12
2019-05-03T04:05:05.598Z,70.22
2019-05-03T04:06:05.820Z,69.70
2019-05-03T04:07:06.243Z,69.60
2019-05-03T04:08:05.650Z,69.81
2019-05-03T04:09:05.197Z,69.81
2019-05-03T04:10:05.680Z,69.81
2019-05-03T04:11:06.315Z,70.01
2019-05-03T04:12:06.007Z,70.25
2019-05-03T04:13:05.426Z,70.36
2019-05-03T04:14:05.423Z,70.87
2019-05-03T04:15:05.695Z,70.46
2019-05-03T04:16:05.576Z,70.97
2019-05-03T04:17:05.855Z,71.38
2019-05-03T04:18:05.618Z,71.69
2019-05-03T04:19:05.819Z,71.59
2019-05-03T04:20:05.098Z,71.28
2019-05-03T04:21:05.554Z,69.02
2019-05-03T04:22:05.847Z,67.17
2019-05-03T04:23:05.318Z,66.86
2019-05-03T04:24:06.017Z,66.86
2019-05-03T04:25:05.984Z,67.38
2019-05-03T04:26:06.800Z,66.69
2019-05-03T04:27:15.599Z,64.84
2019-05-03T04:28:05.723Z,64.73
2019-05-03T04:29:05.368Z,64.32
2019-05-03T04:30:05.910Z,63.60
2019-05-03T04:31:06.199Z,64.22
2019-05-03T04:32:06.043Z,64.22
2019-05-03T04:33:05.961Z,64.12
2019-05-03T04:34:05.114Z,64.15
2019-05-03T04:35:05.419Z,63.94
2019-05-03T04:36:05.415Z,64.15
2019-05-03T04:37:05.343Z,64.46
2019-05-03T04:38:05.475Z,64.36
2019-05-03T04:39:05.370Z,64.46
2019-05-03T04:40:06.106Z,64.76
2019-05-03T04:41:05.944Z,64.56
2019-05-03T04:42:06.356Z,64.53
2019-05-03T04:43:06.110Z,64.94
2019-05-03T04:44:06.223Z,64.84
2019-05-03T04:45:05.908Z,65.05
2019-05-03T04:46:06.612Z,65.14
2019-05-03T04:47:06.344Z,65.35
2019-05-03T04:48:05.967Z,65.25
2019-05-03T04:49:05.761Z,65.28
2019-05-03T04:50:05.608Z,65.28
2019-05-03T04:51:05.852Z,65.38
2019-05-03T04:52:05.857Z,64.46
2019-05-03T04:53:05.656Z,64.04
2019-05-03T04:54:05.370Z,64.25
2019-05-03T04:55:06.363Z,64.76
2019-05-03T04:56:05.754Z,65.17
2019-05-03T04:57:06.390Z,65.28
2019-05-03T04:58:04.779Z,65.28
2019-05-03T04:59:05.170Z,65.28
2019-05-03T05:00:06.053Z,65.38
2019-05-03T05:01:06.284Z,65.89
2019-05-03T05:02:05.862Z,66.00
2019-05-03T05:03:05.623Z,66.41
2019-05-03T05:04:05.326Z,66.51
2019-05-03T05:05:05.841Z,66.00
2019-05-03T05:06:05.993Z,65.80
2019-05-03T05:07:05.931Z,66.00
2019-05-03T05:08:05.672Z,66.00
2019-05-03T05:09:04.998Z,66.00
2019-05-03T05:10:05.204Z,66.31
2019-05-03T05:11:05.813Z,66.51
2019-05-03T05:12:05.764Z,66.58
2019-05-03T05:13:05.421Z,66.89
2019-05-03T05:14:03.339Z,67.10
2019-05-03T05:15:05.241Z,67.41
2019-05-03T05:16:05.675Z,66.89
2019-05-03T05:17:05.853Z,66.89
2019-05-03T05:18:05.798Z,66.93
2019-05-03T05:19:05.651Z,66.82
2019-05-03T05:20:05.174Z,66.00
2019-05-03T05:21:04.585Z,66.07
2019-05-03T05:22:05.866Z,66.17
2019-05-03T05:23:04.590Z,65.97
2019-05-03T05:24:05.305Z,66.17
2019-05-03T05:25:04.488Z,66.79
2019-05-03T05:26:05.403Z,66.69
2019-05-03T05:27:05.221Z,66.58
2019-05-03T05:28:04.731Z,66.38
2019-05-03T05:29:05.224Z,66.28
2019-05-03T05:30:04.608Z,66.48
2019-05-03T05:31:04.788Z,65.77
2019-05-03T05:32:05.179Z,65.63
2019-05-03T05:33:03.111Z,66.07
2019-05-03T05:34:03.108Z,65.83
2019-05-03T05:35:05.113Z,65.63
2019-05-03T05:36:04.851Z,65.73
2019-05-03T05:37:03.078Z,65.63
2019-05-03T05:38:04.675Z,65.94
2019-05-03T05:39:05.139Z,65.73
2019-05-03T05:40:05.197Z,65.53
2019-05-03T05:41:05.148Z,65.53
2019-05-03T05:42:04.543Z,65.83
2019-05-03T05:43:04.706Z,66.14
2019-05-03T05:44:03.014Z,65.73
2019-05-03T05:45:04.958Z,65.73
2019-05-03T05:46:03.017Z,66.04
2019-05-03T05:47:04.580Z,66.45
2019-05-03T05:48:05.038Z,66.45
2019-05-03T05:49:04.318Z,66.76
2019-05-03T05:50:04.870Z,66.96
2019-05-03T05:51:04.432Z,66.45
2019-05-03T05:52:04.899Z,66.45
2019-05-03T05:53:04.820Z,66.55
2019-05-03T05:54:02.901Z,66.45
2019-05-03T05:55:04.634Z,66.31
2019-05-03T05:56:05.028Z,66.63
2019-05-03T05:57:05.040Z,66.83
2019-05-03T05:58:05.392Z,67.14
2019-05-03T05:59:04.476Z,67.14
2019-05-03T06:00:04.823Z,67.62
2019-05-03T06:01:02.866Z,68.13
2019-05-03T06:02:04.703Z,68.13
2019-05-03T06:03:02.816Z,67.52
2019-05-03T06:04:02.784Z,66.90
2019-05-03T06:05:04.741Z,66.19
2019-05-03T06:06:02.770Z,66.39
2019-05-03T06:07:04.494Z,66.49
2019-05-03T06:08:04.714Z,66.49
2019-05-03T06:09:02.732Z,66.39
2019-05-03T06:10:02.729Z,66.28
2019-05-03T06:11:04.448Z,66.90
2019-05-03T06:12:04.437Z,67.41
2019-05-03T06:13:04.818Z,67.93
2019-05-03T06:14:02.690Z,67.52
2019-05-03T06:15:04.647Z,67.32
2019-05-03T06:16:05.156Z,67.52
2019-05-03T06:17:02.678Z,67.32
2019-05-03T06:18:02.658Z,66.90
2019-05-03T06:19:04.556Z,67.00
2019-05-03T06:20:02.627Z,67.52
2019-05-03T06:21:04.502Z,67.59
2019-05-03T06:22:02.645Z,67.79
2019-05-03T06:23:02.586Z,67.08
2019-05-03T06:24:04.364Z,66.67
2019-05-03T06:25:06.148Z,66.05
2019-05-03T06:26:04.986Z,65.44
2019-05-03T06:27:02.579Z,65.33
2019-05-03T06:28:14.720Z,65.03
2019-05-03T06:29:04.580Z,64.82
2019-05-03T06:30:04.592Z,64.82
2019-05-03T06:31:02.500Z,64.82
2019-05-03T06:32:02.529Z,65.41
2019-05-03T06:33:02.499Z,65.81
2019-05-03T06:34:04.432Z,64.69
2019-05-03T06:35:02.459Z,63.76
2019-05-03T06:36:02.537Z,63.97
2019-05-03T06:37:04.354Z,63.25
2019-05-03T06:38:02.443Z,62.95
2019-05-03T06:39:02.418Z,62.92
2019-05-03T06:40:05.816Z,62.92
2019-05-03T06:41:04.260Z,63.12
2019-05-03T06:42:02.405Z,61.58
2019-05-03T06:43:09.787Z,60.46
2019-05-03T06:44:04.397Z,60.56
2019-05-03T06:45:09.053Z,59.64
2019-05-03T06:46:05.309Z,59.94
2019-05-03T06:47:09.092Z,58.51
2019-05-03T06:48:05.410Z,57.87
2019-05-03T06:49:06.619Z,57.46
2019-05-03T06:50:05.383Z,56.74
2019-05-03T06:51:06.057Z,56.54
2019-05-03T06:52:03.317Z,57.23
2019-05-03T06:53:05.834Z,56.61
2019-05-03T06:54:05.098Z,55.79
2019-05-03T06:55:08.561Z,56.30
2019-05-03T06:56:04.565Z,56.41
2019-05-03T06:57:05.698Z,56.61
2019-05-03T06:58:04.962Z,54.97
2019-05-03T06:59:02.216Z,53.62
2019-05-03T07:00:02.205Z,54.54
2019-05-03T07:01:04.651Z,53.82
2019-05-03T07:02:02.173Z,54.16
2019-05-03T07:03:02.190Z,53.82
2019-05-03T07:04:04.977Z,54.74
2019-05-03T07:05:02.141Z,54.74
2019-05-03T07:06:04.513Z,54.16
2019-05-03T07:07:02.123Z,55.26
2019-05-03T07:08:02.161Z,55.56
2019-05-03T07:09:02.100Z,55.66
2019-05-03T07:10:02.090Z,55.66
2019-05-03T07:11:03.402Z,55.74
2019-05-03T07:12:04.366Z,54.92
2019-05-03T07:13:02.091Z,55.02
2019-05-03T07:14:02.047Z,55.23
2019-05-03T07:15:02.037Z,55.23
2019-05-03T07:16:04.666Z,55.33
2019-05-03T07:17:02.017Z,54.92
2019-05-03T07:18:02.052Z,54.21
2019-05-03T07:19:02.005Z,54.41
2019-05-03T07:20:02.004Z,54.92
2019-05-03T07:21:01.973Z,55.54
2019-05-03T07:22:04.851Z,55.92
2019-05-03T07:23:01.973Z,55.74
2019-05-03T07:24:01.942Z,55.21
2019-05-03T07:25:04.570Z,54.59
2019-05-03T07:26:01.927Z,54.28
2019-05-03T07:27:02.057Z,54.18
2019-05-03T07:28:01.938Z,55.08
2019-05-03T07:29:04.835Z,53.92
2019-05-03T07:30:01.910Z,54.21
2019-05-03T07:31:01.873Z,53.57
2019-05-03T07:32:01.868Z,52.45
2019-05-03T07:33:01.848Z,52.25
2019-05-03T07:34:01.867Z,51.91
2019-05-03T07:35:01.841Z,51.30
2019-05-03T07:36:01.816Z,50.56
2019-05-03T07:37:01.803Z,49.01
2019-05-03T07:38:01.796Z,50.03
2019-05-03T07:39:01.835Z,50.46
2019-05-03T07:40:01.775Z,50.56
2019-05-03T07:41:01.764Z,48.93
2019-05-03T07:42:01.783Z,48.32
2019-05-03T07:43:01.803Z,49.57
2019-05-03T07:44:02.053Z,49.46
2019-05-03T07:45:01.722Z,49.46
2019-05-03T07:46:01.718Z,49.95
2019-05-03T07:47:01.701Z,50.26
2019-05-03T07:48:01.690Z,48.52
2019-05-03T07:49:01.713Z,47.61
2019-05-03T07:50:01.667Z,47.71
2019-05-03T07:51:01.657Z,48.93
2019-05-03T07:52:01.647Z,48.73
2019-05-03T07:53:01.638Z,48.24
2019-05-03T07:54:01.657Z,48.14
2019-05-03T07:55:01.628Z,47.73
2019-05-03T07:56:01.627Z,48.36
2019-05-03T07:57:01.595Z,48.36
2019-05-03T07:58:04.576Z,48.77
2019-05-03T07:59:05.658Z,49.51
2019-05-03T08:00:01.574Z,49.41
2019-05-03T08:01:06.069Z,49.00
2019-05-03T08:02:02.544Z,48.39
2019-05-03T08:03:01.592Z,47.67
2019-05-03T08:04:02.545Z,46.66
2019-05-03T08:05:01.512Z,45.12
2019-05-03T08:06:04.319Z,45.81
2019-05-03T08:07:01.493Z,45.61
2019-05-03T08:08:01.480Z,45.20
2019-05-03T08:09:01.498Z,46.22
2019-05-03T08:10:05.274Z,46.22
2019-05-03T08:11:01.470Z,47.34
2019-05-03T08:12:01.437Z,47.67
2019-05-03T08:13:01.428Z,47.27
2019-05-03T08:14:01.436Z,47.57
2019-05-03T08:15:01.417Z,46.86
2019-05-03T08:16:01.412Z,47.08
2019-05-03T08:17:01.389Z,47.08
2019-05-03T08:18:01.385Z,46.98
2019-05-03T08:19:01.465Z,47.19
2019-05-03T08:20:01.358Z,46.98
2019-05-03T08:21:01.388Z,47.98
2019-05-03T08:22:01.325Z,47.16
2019-05-03T08:23:01.330Z,47.34
2019-05-03T08:24:01.430Z,46.53
2019-05-03T08:25:01.293Z,45.72
2019-05-03T08:26:01.330Z,45.61
2019-05-03T08:27:01.277Z,46.00
2019-05-03T08:28:01.261Z,45.79
2019-05-03T08:29:14.826Z,45.49
2019-05-03T08:30:02.269Z,45.20
2019-05-03T08:31:01.929Z,45.89
2019-05-03T08:32:01.930Z,44.69
2019-05-03T08:33:01.928Z,45.00
2019-05-03T08:34:01.208Z,44.69
2019-05-03T08:35:01.219Z,44.28
2019-05-03T08:36:01.185Z,44.79
2019-05-03T08:37:01.166Z,44.38
2019-05-03T08:38:01.164Z,44.51
2019-05-03T08:39:01.170Z,44.81
2019-05-03T08:40:01.167Z,44.81
2019-05-03T08:41:01.130Z,44.92
2019-05-03T08:42:01.125Z,45.94
2019-05-03T08:43:01.110Z,44.92
2019-05-03T08:44:01.095Z,45.22
2019-05-03T08:45:01.112Z,45.72
2019-05-03T08:46:01.076Z,42.61
2019-05-03T08:47:01.095Z,41.14
2019-05-03T08:48:01.060Z,42.27
2019-05-03T08:49:01.040Z,42.57
2019-05-03T08:50:01.063Z,40.60
2019-05-03T08:51:01.030Z,39.44
2019-05-03T08:52:01.037Z,40.46
2019-05-03T08:53:01.086Z,41.17
2019-05-03T08:54:01.930Z,39.87
2019-05-03T08:55:01.033Z,39.99
2019-05-03T08:56:07.983Z,40.21
2019-05-03T08:57:00.956Z,40.72
2019-05-03T08:58:01.450Z,42.04
2019-05-03T08:59:00.930Z,41.13
2019-05-03T09:00:00.948Z,40.50
2019-05-03T09:01:01.568Z,40.41
2019-05-03T09:02:03.493Z,39.60
2019-05-03T09:03:01.888Z,39.90
2019-05-03T09:04:01.458Z,40.41
2019-05-03T09:05:00.887Z,41.52
2019-05-03T09:06:00.864Z,40.70
2019-05-03T09:07:00.845Z,40.07
2019-05-03T09:08:00.862Z,39.48
2019-05-03T09:09:00.832Z,38.75
2019-05-03T09:10:00.834Z,39.24
2019-05-03T09:11:00.804Z,40.77
2019-05-03T09:12:00.793Z,40.48
2019-05-03T09:13:03.450Z,39.66
2019-05-03T09:14:00.781Z,40.37
2019-05-03T09:15:00.791Z,40.36
2019-05-03T09:16:00.807Z,39.95
2019-05-03T09:17:00.740Z,39.95
2019-05-03T09:18:01.497Z,38.73
2019-05-03T09:19:00.804Z,40.16
2019-05-03T09:20:00.754Z,39.46
2019-05-03T09:21:00.698Z,39.56
2019-05-03T09:22:00.688Z,40.68
2019-05-03T09:23:00.678Z,40.58
2019-05-03T09:24:01.390Z,38.53
2019-05-03T09:25:00.656Z,38.18
2019-05-03T09:26:00.665Z,37.93
2019-05-03T09:27:00.635Z,37.79
2019-05-03T09:28:00.624Z,37.16
2019-05-03T09:29:00.614Z,36.76
2019-05-03T09:30:01.385Z,36.36
2019-05-03T09:31:00.614Z,35.57
2019-05-03T09:32:00.582Z,35.07
2019-05-03T09:33:00.569Z,35.19
2019-05-03T09:34:00.552Z,35.68
2019-05-03T09:35:00.543Z,36.41
2019-05-03T09:36:01.511Z,35.82
2019-05-03T09:37:00.530Z,35.83
2019-05-03T09:38:00.520Z,35.33
2019-05-03T09:39:00.510Z,36.46
2019-05-03T09:40:00.489Z,37.49
2019-05-03T09:41:01.019Z,38.10
2019-05-03T09:42:00.559Z,38.43
2019-05-03T09:43:00.457Z,39.75
2019-05-03T09:44:00.470Z,38.83
2019-05-03T09:45:00.439Z,39.34
2019-05-03T09:46:00.492Z,38.63
2019-05-03T09:47:00.415Z,38.53
2019-05-03T09:48:00.406Z,40.14
2019-05-03T09:49:11.056Z,39.22
2019-05-03T09:50:02.229Z,38.00
2019-05-03T09:51:00.428Z,38.39
2019-05-03T09:52:00.384Z,37.37
2019-05-03T09:53:00.354Z,38.79
2019-05-03T09:54:00.351Z,39.08
2019-05-03T09:55:00.332Z,37.04
2019-05-03T09:56:00.350Z,37.64
2019-05-03T09:57:00.957Z,37.02
2019-05-03T09:58:00.299Z,36.69
2019-05-03T09:59:00.290Z,35.58
2019-05-03T10:00:01.052Z,34.45
2019-05-03T10:01:00.290Z,34.22
2019-05-03T10:02:00.260Z,34.89
2019-05-03T10:03:00.247Z,33.56
2019-05-03T10:04:00.238Z,32.14
2019-05-03T10:05:01.167Z,33.44
2019-05-03T10:06:00.245Z,32.55
2019-05-03T10:07:00.207Z,33.84
2019-05-03T10:08:00.194Z,33.34
2019-05-03T10:09:00.187Z,33.95
2019-05-03T10:10:00.177Z,33.78
2019-05-03T10:11:00.195Z,32.07
2019-05-03T10:12:00.165Z,32.09
2019-05-03T10:13:01.064Z,31.09
2019-05-03T10:14:00.149Z,31.49
2019-05-03T10:15:00.119Z,33.52
2019-05-03T10:16:00.132Z,35.24
2019-05-03T10:17:00.092Z,36.17
2019-05-03T10:18:00.100Z,34.84
2019-05-03T10:19:00.072Z,35.35
2019-05-03T10:20:00.062Z,35.24
2019-05-03T10:21:00.157Z,35.75
2019-05-03T10:22:00.039Z,35.75
2019-05-03T10:23:00.031Z,32.78
2019-05-03T10:24:00.029Z,33.05
2019-05-03T10:25:00.047Z,30.80
2019-05-03T10:25:59.999Z,30.28
2019-05-03T10:27:00.008Z,29.66
2019-05-03T10:27:59.978Z,29.14
2019-05-03T10:29:00.049Z,31.55
2019-05-03T10:30:10.559Z,28.83
2019-05-03T10:31:00.952Z,27.72
2019-05-03T10:31:59.956Z,29.06
2019-05-03T10:32:59.924Z,28.97
2019-05-03T10:33:59.917Z,29.59
2019-05-03T10:34:59.901Z,31.22
2019-05-03T10:35:59.900Z,31.03
2019-05-03T10:36:59.904Z,30.35
2019-05-03T10:37:59.873Z,30.47
2019-05-03T10:38:59.887Z,31.40
2019-05-03T10:39:59.851Z,33.03
2019-05-03T10:41:00.612Z,33.22
2019-05-03T10:41:59.852Z,33.13
2019-05-03T10:42:59.821Z,34.45
2019-05-03T10:43:59.801Z,33.33
2019-05-03T10:44:59.791Z,33.13
2019-05-03T10:46:00.509Z,33.94
2019-05-03T10:47:00.608Z,34.95
2019-05-03T10:47:59.766Z,35.14
2019-05-03T10:48:59.780Z,33.52
2019-05-03T10:49:59.738Z,32.09
2019-05-03T10:50:59.758Z,32.98
2019-05-03T10:51:59.748Z,33.09
2019-05-03T10:52:59.714Z,32.98
2019-05-03T10:53:59.696Z,33.39
2019-05-03T10:54:59.704Z,33.49
2019-05-03T10:55:59.677Z,34.22
2019-05-03T10:56:59.692Z,33.50
2019-05-03T10:57:59.664Z,33.30
2019-05-03T10:59:00.563Z,33.61
2019-05-03T11:00:00.163Z,32.79
2019-05-03T11:00:59.624Z,33.42
2019-05-03T11:01:59.642Z,33.92
2019-05-03T11:02:59.602Z,35.35
2019-05-03T11:04:00.401Z,35.44
2019-05-03T11:04:59.621Z,34.64
2019-05-03T11:06:00.201Z,34.23
2019-05-03T11:06:59.590Z,34.13
2019-05-03T11:07:59.549Z,34.53
2019-05-03T11:08:59.551Z,32.91
2019-05-03T11:09:59.528Z,33.42
2019-05-03T11:11:00.329Z,34.13
2019-05-03T11:11:59.556Z,31.60
2019-05-03T11:12:59.497Z,32.39
2019-05-03T11:13:59.485Z,33.61
2019-05-03T11:14:59.496Z,33.69
2019-05-03T11:15:59.535Z,33.36
2019-05-03T11:17:00.602Z,33.33
2019-05-03T11:17:59.467Z,31.93
2019-05-03T11:19:00.204Z,31.93
2019-05-03T11:20:00.323Z,32.23
2019-05-03T11:20:59.404Z,31.74
2019-05-03T11:21:59.429Z,32.06
2019-05-03T11:22:59.420Z,32.16
2019-05-03T11:23:59.381Z,32.59
2019-05-03T11:24:59.371Z,30.99
2019-05-03T11:26:00.202Z,31.49
2019-05-03T11:27:01.144Z,31.60
2019-05-03T11:27:59.400Z,32.32
2019-05-03T11:29:00.589Z,32.82
2019-05-03T11:29:59.364Z,33.03
2019-05-03T11:31:02.299Z,33.45
2019-05-03T11:31:59.297Z,32.95
2019-05-03T11:32:59.316Z,32.86
2019-05-03T11:33:59.276Z,33.87
2019-05-03T11:34:59.261Z,34.58
2019-05-03T11:35:59.247Z,34.50
2019-05-03T11:36:59.237Z,33.77
2019-05-03T11:37:59.255Z,33.47
2019-05-03T11:38:59.216Z,33.13
2019-05-03T11:39:59.212Z,32.51
2019-05-03T11:40:59.195Z,32.79
2019-05-03T11:41:59.184Z,32.19
2019-05-03T11:42:59.194Z,32.09
2019-05-03T11:43:59.163Z,31.58
2019-05-03T11:44:59.153Z,31.57
2019-05-03T11:45:59.144Z,31.58
2019-05-03T11:46:59.133Z,32.39
2019-05-03T11:48:01.194Z,33.20
2019-05-03T11:48:59.112Z,34.13
2019-05-03T11:49:59.825Z,34.22
2019-05-03T11:50:59.089Z,33.10
2019-05-03T11:51:59.947Z,33.40
2019-05-03T11:52:59.689Z,32.90
2019-05-03T11:53:59.059Z,32.68
2019-05-03T11:54:59.075Z,32.79
2019-05-03T11:55:59.039Z,31.58
2019-05-03T11:56:59.786Z,31.18
2019-05-03T11:57:59.046Z,31.07
2019-05-03T11:58:59.004Z,30.36
2019-05-03T11:59:58.997Z,30.36
2019-05-03T12:01:11.580Z,31.28
2019-05-03T12:01:59.974Z,31.58
2019-05-03T12:02:58.984Z,31.68
2019-05-03T12:03:58.954Z,31.77
2019-05-03T12:04:59.016Z,33.29
2019-05-03T12:05:58.936Z,32.98
2019-05-03T12:06:59.683Z,33.18
2019-05-03T12:08:00.683Z,32.28
2019-05-03T12:08:58.982Z,31.07
2019-05-03T12:09:58.895Z,32.88
2019-05-03T12:11:01.632Z,33.09
2019-05-03T12:11:58.869Z,32.38
2019-05-03T12:12:58.918Z,32.17
2019-05-03T12:14:04.149Z,31.25
2019-05-03T12:14:59.836Z,32.26
2019-05-03T12:15:58.838Z,31.57
2019-05-03T12:17:16.741Z,30.87
2019-05-03T12:18:00.204Z,32.50
2019-05-03T12:18:58.884Z,32.68
2019-05-03T12:19:59.812Z,32.87
2019-05-03T12:21:01.008Z,33.80
2019-05-03T12:21:59.339Z,32.07
2019-05-03T12:23:00.020Z,33.10
2019-05-03T12:23:59.259Z,33.40
2019-05-03T12:24:59.382Z,34.22
2019-05-03T12:25:59.970Z,34.42
2019-05-03T12:26:58.703Z,33.12
2019-05-03T12:27:58.694Z,33.50
2019-05-03T12:28:58.710Z,34.06
2019-05-03T12:29:58.673Z,32.75
2019-05-03T12:30:58.729Z,31.94
2019-05-03T12:31:58.651Z,29.80
2019-05-03T12:32:58.641Z,29.49
2019-05-03T12:33:58.650Z,28.36
2019-05-03T12:34:58.620Z,29.57
2019-05-03T12:35:58.609Z,27.75
2019-05-03T12:36:58.596Z,28.45
2019-05-03T12:37:58.586Z,29.37
2019-05-03T12:38:58.600Z,30.99
2019-05-03T12:39:58.569Z,29.07
2019-05-03T12:40:58.561Z,28.47
2019-05-03T12:41:58.548Z,28.98
2019-05-03T12:42:58.536Z,29.59
2019-05-03T12:43:58.547Z,29.80
2019-05-03T12:44:58.512Z,29.21
2019-05-03T12:45:58.504Z,29.32
2019-05-03T12:46:58.493Z,30.12
2019-05-03T12:47:58.522Z,31.05
2019-05-03T12:48:58.528Z,31.25
2019-05-03T12:49:58.460Z,31.67
2019-05-03T12:50:58.881Z,31.67
2019-05-03T12:51:58.962Z,32.39